Alamo, California
Current Conditions -  °F | °C
As of 12:53 PM on Sunday 21 Dec 2014 (Local Time) from KCCR Reporting Station
Broken Clouds Broken Clouds  
Wind Chill: 66°   Ceiling: 1800
Heat Index: 66°   Visibility: 10mi
Dew Point: 58°   Wind: 15mph
Humidity: 75%   Direction: 270°W
Pressure: 30.26"   Gusts: NA
Location:  37.85°N, 122.03°W
Report Text: KCCR 212053Z 27013KT 10SM BKN018 BKN060 19/14 A3026 RMK AO2 SLP232 T01890144 58016
Loading
Personal Weather Stations






























Interactive Weather Map New forecast layout! Learn more

10-Day Weather Forecast

Advertisements
Track Severe Weather on mobile